createdAt,value
2022-10-30T00:00:44.636Z,2.97
2022-10-30T00:03:15.671Z,3.47
2022-10-30T00:05:47.688Z,3.10
2022-10-30T00:08:16.265Z,3.50
2022-10-30T00:10:43.718Z,3.42
2022-10-30T00:13:11.221Z,3.75
2022-10-30T00:15:38.445Z,3.55
2022-10-30T00:18:05.621Z,3.15
2022-10-30T00:20:32.297Z,3.08
2022-10-30T00:22:59.208Z,3.42
2022-10-30T00:25:26.101Z,3.22
2022-10-30T00:27:52.700Z,3.90
2022-10-30T00:30:19.393Z,3.90
2022-10-30T00:32:46.043Z,4.28
2022-10-30T00:35:12.698Z,3.67
2022-10-30T00:37:39.482Z,3.53
2022-10-30T00:40:07.402Z,3.60
2022-10-30T00:42:34.047Z,3.47
2022-10-30T00:45:00.752Z,3.35
2022-10-30T00:47:34.455Z,4.15
2022-10-30T00:50:16.240Z,3.35
2022-10-30T00:52:54.688Z,4.03
2022-10-30T00:55:27.482Z,3.35
2022-10-30T00:57:54.835Z,2.95
2022-10-30T01:00:24.351Z,3.38
2022-10-30T01:02:52.299Z,3.70
2022-10-30T01:05:22.278Z,3.75
2022-10-30T01:07:48.927Z,3.60
2022-10-30T01:10:17.359Z,4.05
2022-10-30T01:12:47.444Z,4.15
2022-10-30T01:15:14.700Z,3.60
2022-10-30T01:18:07.195Z,3.42
2022-10-30T01:20:52.201Z,3.60
2022-10-30T01:23:30.835Z,3.65
2022-10-30T01:26:31.879Z,3.75
2022-10-30T01:29:22.186Z,3.10
2022-10-30T01:32:08.347Z,3.20
2022-10-30T01:34:57.740Z,4.00
2022-10-30T01:37:49.806Z,3.45
2022-10-30T01:40:18.709Z,3.70
2022-10-30T01:42:47.339Z,3.85
2022-10-30T01:45:29.128Z,3.25
2022-10-30T01:48:35.261Z,3.38
2022-10-30T01:51:21.678Z,3.40
2022-10-30T01:54:03.310Z,3.42
2022-10-30T01:56:55.223Z,3.50
2022-10-30T01:59:37.288Z,3.67
2022-10-30T02:02:06.273Z,3.80
2022-10-30T02:04:33.509Z,3.33
2022-10-30T02:07:00.351Z,3.55
2022-10-30T02:09:27.606Z,3.38
2022-10-30T02:11:55.283Z,3.35
2022-10-30T02:14:27.223Z,3.38
2022-10-30T02:16:56.857Z,3.63
2022-10-30T02:19:23.516Z,3.40
2022-10-30T02:21:51.421Z,3.92
2022-10-30T02:24:18.198Z,3.72
2022-10-30T02:26:44.963Z,3.80
2022-10-30T02:29:11.610Z,3.38
2022-10-30T02:31:38.408Z,3.65
2022-10-30T02:34:05.436Z,3.78
2022-10-30T02:36:33.001Z,3.10
2022-10-30T02:39:00.182Z,4.07
2022-10-30T02:41:27.127Z,3.58
2022-10-30T02:43:55.288Z,4.57
2022-10-30T02:46:22.257Z,3.80
2022-10-30T02:48:49.003Z,3.45
2022-10-30T02:51:15.655Z,3.97
2022-10-30T02:53:42.715Z,4.15
2022-10-30T02:56:13.119Z,3.95
2022-10-30T02:58:41.731Z,4.10
2022-10-30T03:01:15.947Z,3.65
2022-10-30T03:03:44.503Z,3.60
2022-10-30T03:06:15.761Z,3.30
2022-10-30T03:08:43.571Z,3.90
2022-10-30T03:11:16.197Z,3.28
2022-10-30T03:13:44.819Z,3.55
2022-10-30T03:16:16.058Z,3.55
2022-10-30T03:18:43.374Z,4.30
2022-10-30T03:21:13.173Z,3.63
2022-10-30T03:23:39.839Z,4.28
2022-10-30T03:26:07.143Z,3.38
2022-10-30T03:28:43.090Z,3.33
2022-10-30T03:31:17.953Z,3.70
2022-10-30T03:33:46.175Z,3.38
2022-10-30T03:36:14.518Z,4.40
2022-10-30T03:38:41.944Z,3.78
2022-10-30T03:41:10.120Z,3.90
2022-10-30T03:43:37.023Z,3.90
2022-10-30T03:46:03.887Z,3.67
2022-10-30T03:48:31.624Z,3.90
2022-10-30T03:50:59.784Z,3.65
2022-10-30T03:53:28.546Z,3.65
2022-10-30T03:56:00.771Z,3.20
2022-10-30T03:58:31.197Z,3.88
2022-10-30T04:01:07.396Z,4.22
2022-10-30T04:03:38.550Z,3.58
2022-10-30T04:06:07.705Z,3.97
2022-10-30T04:08:34.419Z,3.67
2022-10-30T04:11:02.548Z,3.83
2022-10-30T04:13:29.485Z,4.50
2022-10-30T04:15:58.227Z,4.20
2022-10-30T04:18:25.962Z,4.30
2022-10-30T04:20:53.436Z,3.63
2022-10-30T04:23:21.772Z,3.88
2022-10-30T04:25:48.608Z,4.15
2022-10-30T04:28:16.122Z,4.53
2022-10-30T04:30:43.838Z,4.25
2022-10-30T04:33:12.462Z,4.78
2022-10-30T04:35:41.238Z,3.88
2022-10-30T04:38:15.781Z,4.47
2022-10-30T04:40:44.238Z,3.83
2022-10-30T04:43:13.741Z,3.75
2022-10-30T04:45:41.502Z,4.28
2022-10-30T04:48:12.318Z,4.32
2022-10-30T04:50:39.103Z,4.75
2022-10-30T04:53:12.940Z,4.28
2022-10-30T04:55:40.888Z,3.80
2022-10-30T04:58:10.354Z,3.67
2022-10-30T05:00:39.801Z,4.28
2022-10-30T05:03:20.568Z,3.78
2022-10-30T05:06:07.168Z,3.58
2022-10-30T05:08:33.828Z,3.92
2022-10-30T05:11:06.505Z,3.55
2022-10-30T05:13:33.164Z,3.50
2022-10-30T05:15:59.762Z,3.88
2022-10-30T05:18:26.479Z,3.65
2022-10-30T05:20:53.223Z,3.15
2022-10-30T05:23:19.886Z,3.75
2022-10-30T05:25:46.529Z,3.97
2022-10-30T05:28:15.670Z,3.78
2022-10-30T05:30:46.911Z,3.92
2022-10-30T05:33:30.817Z,4.30
2022-10-30T05:35:57.437Z,3.30
2022-10-30T05:38:24.096Z,4.68
2022-10-30T05:40:52.580Z,3.70
2022-10-30T05:43:19.774Z,3.60
2022-10-30T05:45:49.517Z,3.45
2022-10-30T05:48:17.826Z,4.00
2022-10-30T05:50:46.596Z,3.53
2022-10-30T05:53:28.234Z,4.22
2022-10-30T05:55:58.003Z,3.67
2022-10-30T05:58:25.957Z,3.58
2022-10-30T06:00:55.134Z,3.70
2022-10-30T06:03:35.720Z,3.50
2022-10-30T06:06:02.543Z,3.47
2022-10-30T06:08:31.856Z,4.25
2022-10-30T06:11:02.248Z,3.50
2022-10-30T06:13:36.602Z,3.45
2022-10-30T06:16:09.363Z,3.78
2022-10-30T06:18:59.425Z,3.15
2022-10-30T06:21:28.289Z,3.83
2022-10-30T06:24:15.291Z,3.58
2022-10-30T06:26:49.408Z,4.55
2022-10-30T06:29:16.047Z,4.13
2022-10-30T06:31:42.792Z,3.58
2022-10-30T06:34:09.432Z,3.80
2022-10-30T06:36:39.091Z,4.07
2022-10-30T06:39:05.910Z,3.92
2022-10-30T06:41:40.087Z,3.85
2022-10-30T06:44:23.225Z,3.85
2022-10-30T06:46:53.152Z,3.65
2022-10-30T06:49:20.052Z,3.90
2022-10-30T06:51:48.294Z,4.57
2022-10-30T06:54:15.656Z,4.85
2022-10-30T06:57:02.238Z,5.30
2022-10-30T06:59:47.535Z,4.28
2022-10-30T07:02:26.484Z,5.05
2022-10-30T07:04:56.945Z,6.22
2022-10-30T07:07:24.115Z,7.18
2022-10-30T07:09:50.927Z,5.88
2022-10-30T07:12:22.137Z,6.90
2022-10-30T07:14:54.676Z,7.22
2022-10-30T07:17:39.784Z,6.75
2022-10-30T07:20:13.764Z,7.28
2022-10-30T07:22:40.571Z,7.10
2022-10-30T07:25:08.534Z,7.47
2022-10-30T07:27:44.816Z,6.53
2022-10-30T07:30:28.474Z,5.68
2022-10-30T07:33:10.831Z,4.93
2022-10-30T07:35:54.080Z,4.80
2022-10-30T07:38:43.924Z,5.10
2022-10-30T07:41:29.419Z,4.72
2022-10-30T07:44:34.534Z,4.22
2022-10-30T07:47:13.144Z,4.55
2022-10-30T07:50:01.164Z,4.03
2022-10-30T07:52:32.584Z,5.15
2022-10-30T07:54:59.975Z,4.63
2022-10-30T07:57:43.112Z,4.10
2022-10-30T08:00:28.324Z,4.28
2022-10-30T08:03:08.352Z,4.67
2022-10-30T08:05:49.380Z,4.70
2022-10-30T08:08:43.221Z,3.88
2022-10-30T08:11:23.933Z,3.65
2022-10-30T08:13:50.913Z,4.32
2022-10-30T08:16:18.427Z,4.20
2022-10-30T08:18:45.843Z,4.28
2022-10-30T08:21:12.543Z,4.30
2022-10-30T08:23:51.630Z,4.40
2022-10-30T08:26:18.347Z,4.60
2022-10-30T08:28:44.983Z,4.60
2022-10-30T08:31:12.522Z,4.22
2022-10-30T08:34:09.305Z,4.63
2022-10-30T08:36:52.404Z,4.57
2022-10-30T08:39:19.960Z,4.75
2022-10-30T08:42:00.038Z,4.38
2022-10-30T08:44:31.112Z,5.00
2022-10-30T08:47:12.579Z,4.32
2022-10-30T08:49:40.185Z,5.43
2022-10-30T08:52:10.189Z,4.32
2022-10-30T08:54:38.251Z,4.28
2022-10-30T08:57:05.644Z,4.95
2022-10-30T08:59:32.272Z,5.18
2022-10-30T09:02:07.924Z,4.70
2022-10-30T09:04:53.319Z,5.53
2022-10-30T09:07:49.748Z,4.10
2022-10-30T09:10:45.701Z,4.68
2022-10-30T09:13:12.591Z,4.40
2022-10-30T09:15:41.983Z,4.50
2022-10-30T09:18:09.280Z,4.47
2022-10-30T09:20:35.949Z,4.32
2022-10-30T09:23:04.226Z,5.07
2022-10-30T09:25:31.057Z,4.57
2022-10-30T09:28:07.444Z,4.93
2022-10-30T09:30:56.282Z,4.40
2022-10-30T09:33:23.955Z,4.75
2022-10-30T09:36:10.612Z,4.55
2022-10-30T09:38:37.236Z,4.55
2022-10-30T09:41:34.670Z,4.95
2022-10-30T09:44:30.863Z,4.88
2022-10-30T09:47:48.901Z,4.47
2022-10-30T09:50:42.312Z,4.68
2022-10-30T09:53:21.713Z,4.50
2022-10-30T09:56:03.197Z,4.40
2022-10-30T09:58:50.125Z,4.55
2022-10-30T10:01:28.749Z,4.55
2022-10-30T10:04:15.919Z,4.45
2022-10-30T10:06:46.588Z,4.25
2022-10-30T10:09:35.432Z,4.53
2022-10-30T10:12:39.159Z,3.85
2022-10-30T10:15:14.509Z,3.83
2022-10-30T10:17:44.571Z,3.85
2022-10-30T10:20:25.242Z,4.15
2022-10-30T10:22:52.155Z,4.40
2022-10-30T10:25:20.557Z,4.38
2022-10-30T10:28:04.428Z,4.75
2022-10-30T10:31:03.197Z,3.92
2022-10-30T10:33:55.159Z,4.10
2022-10-30T10:36:43.204Z,4.65
2022-10-30T10:39:21.560Z,4.63
2022-10-30T10:42:02.146Z,4.07
2022-10-30T10:44:48.669Z,3.97
2022-10-30T10:47:36.707Z,4.15
2022-10-30T10:50:27.148Z,4.45
2022-10-30T10:53:01.261Z,3.83
2022-10-30T10:55:36.561Z,4.40
2022-10-30T10:58:18.745Z,4.40
2022-10-30T11:00:46.029Z,3.60
2022-10-30T11:06:00.923Z,4.72
2022-10-30T11:08:32.560Z,4.50
2022-10-30T11:11:04.708Z,4.50
2022-10-30T11:13:35.625Z,4.20
2022-10-30T11:16:24.063Z,4.60
2022-10-30T11:18:54.887Z,4.80
2022-10-30T11:21:26.646Z,4.38
2022-10-30T11:23:53.819Z,4.40
2022-10-30T11:26:20.422Z,4.10
2022-10-30T11:29:10.910Z,4.40
2022-10-30T11:31:42.418Z,3.83
2022-10-30T11:34:18.176Z,3.85
2022-10-30T11:36:49.431Z,3.38
2022-10-30T11:39:20.175Z,3.75
2022-10-30T11:42:02.014Z,4.18
2022-10-30T11:44:38.633Z,3.80
2022-10-30T11:47:06.798Z,4.03
2022-10-30T11:49:42.111Z,3.85
2022-10-30T11:52:10.724Z,3.83
2022-10-30T11:54:41.988Z,3.97
2022-10-30T11:57:24.547Z,3.90
2022-10-30T11:59:54.683Z,4.35
2022-10-30T12:02:29.510Z,3.53
2022-10-30T12:05:01.229Z,3.58
2022-10-30T12:07:33.261Z,3.50
2022-10-30T12:10:01.552Z,3.75
2022-10-30T12:12:31.616Z,3.85
2022-10-30T12:15:07.912Z,3.15
2022-10-30T12:17:34.595Z,3.55
2022-10-30T12:20:02.599Z,3.75
2022-10-30T12:22:35.904Z,3.38
2022-10-30T12:25:07.351Z,3.63
2022-10-30T12:27:37.382Z,4.20
2022-10-30T12:30:11.865Z,3.67
2022-10-30T12:32:46.216Z,3.63
2022-10-30T12:35:31.663Z,3.63
2022-10-30T12:38:00.883Z,3.47
2022-10-30T12:40:31.564Z,3.95
2022-10-30T12:43:09.478Z,3.60
2022-10-30T12:45:48.823Z,3.42
2022-10-30T12:48:37.923Z,3.95
2022-10-30T12:51:24.081Z,4.10
2022-10-30T12:54:08.414Z,3.42
2022-10-30T12:56:41.561Z,3.63
2022-10-30T12:59:11.213Z,4.03
2022-10-30T13:01:57.399Z,3.88
2022-10-30T13:04:32.721Z,3.60
2022-10-30T13:07:19.615Z,4.30
2022-10-30T13:10:04.960Z,3.30
2022-10-30T13:12:39.047Z,3.33
2022-10-30T13:15:38.888Z,3.60
2022-10-30T13:18:33.623Z,3.08
2022-10-30T13:21:26.581Z,3.50
2022-10-30T13:23:58.287Z,3.08
2022-10-30T13:26:33.642Z,3.58
2022-10-30T13:29:13.839Z,3.60
2022-10-30T13:31:53.011Z,3.45
2022-10-30T13:34:29.080Z,3.75
2022-10-30T13:37:32.670Z,3.58
2022-10-30T13:40:21.199Z,3.50
2022-10-30T13:43:00.427Z,3.60
2022-10-30T13:46:01.215Z,3.50
2022-10-30T13:48:39.985Z,3.28
2022-10-30T13:51:20.683Z,3.30
2022-10-30T13:53:54.465Z,3.50
2022-10-30T13:56:22.461Z,4.00
2022-10-30T13:59:21.183Z,3.42
2022-10-30T14:01:59.071Z,3.28
2022-10-30T14:04:58.984Z,3.58
2022-10-30T14:08:06.361Z,3.55
2022-10-30T14:10:42.756Z,2.97
2022-10-30T14:13:27.198Z,3.38
2022-10-30T14:16:06.749Z,3.28
2022-10-30T14:19:01.704Z,3.00
2022-10-30T14:21:51.746Z,3.08
2022-10-30T14:24:22.094Z,3.30
2022-10-30T14:26:55.480Z,3.42
2022-10-30T14:29:34.287Z,3.22
2022-10-30T14:32:01.479Z,3.05
2022-10-30T14:34:50.118Z,4.00
2022-10-30T14:37:22.787Z,3.45
2022-10-30T14:39:51.415Z,3.60
2022-10-30T14:42:42.621Z,3.08
2022-10-30T14:45:17.974Z,3.72
2022-10-30T14:47:47.692Z,3.50
2022-10-30T14:50:26.157Z,3.60
2022-10-30T14:52:52.981Z,4.35
2022-10-30T14:55:28.894Z,4.28
2022-10-30T14:58:01.988Z,3.60
2022-10-30T15:00:30.468Z,3.60
2022-10-30T15:03:11.860Z,3.55
2022-10-30T15:06:07.775Z,3.65
2022-10-30T15:08:55.713Z,3.70
2022-10-30T15:11:52.294Z,3.38
2022-10-30T15:14:48.737Z,4.47
2022-10-30T15:17:36.840Z,2.80
2022-10-30T15:20:15.765Z,3.08
2022-10-30T15:22:42.855Z,3.38
2022-10-30T15:25:24.712Z,2.97
2022-10-30T15:27:54.057Z,3.30
2022-10-30T15:30:25.288Z,3.40
2022-10-30T15:32:53.096Z,3.05
2022-10-30T15:35:21.338Z,3.22
2022-10-30T15:38:09.441Z,3.85
2022-10-30T15:40:39.348Z,3.10
2022-10-30T15:43:11.314Z,3.33
2022-10-30T15:45:44.567Z,3.30
2022-10-30T15:48:35.420Z,3.72
2022-10-30T15:51:02.055Z,3.30
2022-10-30T15:53:43.908Z,3.30
2022-10-30T15:56:22.263Z,3.88
2022-10-30T15:58:58.713Z,3.20
2022-10-30T16:01:45.645Z,3.28
2022-10-30T16:04:35.985Z,3.53
2022-10-30T16:07:17.363Z,3.88
2022-10-30T16:10:10.126Z,3.33
2022-10-30T16:12:36.790Z,3.42
2022-10-30T16:15:26.107Z,3.50
2022-10-30T16:18:07.273Z,4.63
2022-10-30T16:20:35.971Z,4.22
2022-10-30T16:23:04.110Z,3.67
2022-10-30T16:25:32.552Z,3.65
2022-10-30T16:27:59.441Z,5.80
2022-10-30T16:30:29.334Z,5.20
2022-10-30T16:32:56.449Z,7.15
2022-10-30T16:35:24.919Z,6.95
2022-10-30T16:37:52.389Z,7.88
2022-10-30T16:40:23.738Z,6.65
2022-10-30T16:43:27.194Z,6.28
2022-10-30T16:45:55.333Z,7.28
2022-10-30T16:48:27.998Z,7.88
2022-10-30T16:51:02.855Z,6.72
2022-10-30T16:53:30.519Z,6.68
2022-10-30T16:55:59.177Z,5.55
2022-10-30T16:58:29.788Z,5.43
2022-10-30T17:01:04.263Z,5.50
2022-10-30T17:03:35.247Z,6.30
2022-10-30T17:06:07.381Z,5.22
2022-10-30T17:08:42.348Z,4.28
2022-10-30T17:11:20.476Z,4.70
2022-10-30T17:13:52.958Z,5.15
2022-10-30T17:16:31.786Z,4.45
2022-10-30T17:19:01.934Z,4.70
2022-10-30T17:21:38.352Z,4.20
2022-10-30T17:24:05.247Z,4.07
2022-10-30T17:26:38.991Z,4.45
2022-10-30T17:29:05.650Z,4.18
2022-10-30T17:31:38.429Z,4.20
2022-10-30T17:34:18.474Z,3.85
2022-10-30T17:36:46.748Z,4.60
2022-10-30T17:39:14.057Z,4.03
2022-10-30T17:41:41.187Z,3.72
2022-10-30T17:44:18.586Z,3.95
2022-10-30T17:46:45.292Z,4.53
2022-10-30T17:49:29.437Z,3.97
2022-10-30T17:51:56.076Z,4.13
2022-10-30T17:54:22.692Z,4.10
2022-10-30T17:56:49.687Z,4.13
2022-10-30T17:59:16.393Z,4.18
2022-10-30T18:01:43.173Z,4.43
2022-10-30T18:04:20.857Z,4.55
2022-10-30T18:06:48.335Z,5.05
2022-10-30T18:09:15.312Z,4.38
2022-10-30T18:11:42.073Z,4.95
2022-10-30T18:14:11.054Z,4.28
2022-10-30T18:16:38.218Z,4.55
2022-10-30T18:19:08.830Z,4.50
2022-10-30T18:21:35.468Z,4.45
2022-10-30T18:24:02.064Z,4.60
2022-10-30T18:26:28.805Z,4.28
2022-10-30T18:28:55.504Z,4.90
2022-10-30T18:31:24.012Z,4.30
2022-10-30T18:33:51.011Z,4.40
2022-10-30T18:36:20.350Z,4.50
2022-10-30T18:38:47.615Z,5.10
2022-10-30T18:41:21.308Z,4.70
2022-10-30T18:43:47.956Z,5.07
2022-10-30T18:46:16.632Z,5.22
2022-10-30T18:48:44.210Z,5.07
2022-10-30T18:51:23.687Z,4.60
2022-10-30T18:53:53.791Z,4.60
2022-10-30T18:56:28.335Z,4.78
2022-10-30T18:59:00.725Z,4.38
2022-10-30T19:01:32.039Z,4.53
2022-10-30T19:04:03.454Z,5.15
2022-10-30T19:06:30.180Z,5.05
2022-10-30T19:08:56.844Z,4.55
2022-10-30T19:11:25.441Z,4.78
2022-10-30T19:13:53.974Z,5.45
2022-10-30T19:16:21.575Z,5.25
2022-10-30T19:18:48.588Z,4.93
2022-10-30T19:21:25.239Z,5.15
2022-10-30T19:23:52.193Z,4.55
2022-10-30T19:26:19.357Z,4.47
2022-10-30T19:28:48.265Z,5.10
2022-10-30T19:31:17.320Z,5.07
2022-10-30T19:33:45.121Z,5.70
2022-10-30T19:36:30.561Z,5.10
2022-10-30T19:38:57.702Z,5.72
2022-10-30T19:41:24.646Z,4.70
2022-10-30T19:43:52.289Z,5.35
2022-10-30T19:46:19.309Z,4.57
2022-10-30T19:49:01.341Z,5.93
2022-10-30T19:51:28.750Z,4.18
2022-10-30T19:53:55.656Z,4.72
2022-10-30T19:56:22.463Z,5.47
2022-10-30T19:58:49.286Z,5.25
2022-10-30T20:01:16.297Z,5.18
2022-10-30T20:03:43.175Z,5.85
2022-10-30T20:06:13.535Z,5.20
2022-10-30T20:08:40.611Z,5.72
2022-10-30T20:11:07.511Z,5.25
2022-10-30T20:13:34.240Z,5.63
2022-10-30T20:16:04.425Z,6.18
2022-10-30T20:18:33.332Z,6.88
2022-10-30T20:21:02.694Z,6.53
2022-10-30T20:23:29.553Z,6.88
2022-10-30T20:26:06.480Z,5.97
2022-10-30T20:28:39.545Z,5.50
2022-10-30T20:31:07.700Z,6.38
2022-10-30T20:33:34.730Z,6.22
2022-10-30T20:36:01.361Z,5.53
2022-10-30T20:38:30.444Z,6.03
2022-10-30T20:40:58.088Z,6.78
2022-10-30T20:43:31.703Z,7.00
2022-10-30T20:45:59.984Z,6.60
2022-10-30T20:48:27.504Z,6.82
2022-10-30T20:50:55.306Z,6.78
2022-10-30T20:53:22.065Z,7.00
2022-10-30T20:55:48.688Z,7.63
2022-10-30T20:58:15.356Z,7.20
2022-10-30T21:00:42.359Z,8.35
2022-10-30T21:03:10.858Z,7.25
2022-10-30T21:05:43.839Z,8.32
2022-10-30T21:08:12.283Z,8.10
2022-10-30T21:10:39.389Z,8.35
2022-10-30T21:13:08.780Z,9.10
2022-10-30T21:15:39.512Z,8.13
2022-10-30T21:18:06.443Z,8.25
2022-10-30T21:20:33.179Z,7.57
2022-10-30T21:23:00.395Z,8.90
2022-10-30T21:25:27.016Z,8.27
2022-10-30T21:27:56.715Z,9.65
2022-10-30T21:30:23.463Z,8.35
2022-10-30T21:32:50.315Z,8.85
2022-10-30T21:35:17.129Z,8.68
2022-10-30T21:37:43.765Z,8.82
2022-10-30T21:40:10.988Z,7.95
2022-10-30T21:42:37.694Z,8.63
2022-10-30T21:45:04.971Z,8.60
2022-10-30T21:47:31.610Z,7.88
2022-10-30T21:49:58.181Z,8.15
2022-10-30T21:52:24.808Z,9.30
2022-10-30T21:54:51.445Z,8.13
2022-10-30T21:57:18.078Z,9.13
2022-10-30T21:59:44.659Z,8.38
2022-10-30T22:02:15.251Z,10.18
2022-10-30T22:04:42.092Z,8.77
2022-10-30T22:07:08.751Z,8.77
2022-10-30T22:09:35.403Z,8.70
2022-10-30T22:12:02.052Z,9.55
2022-10-30T22:14:29.310Z,8.23
2022-10-30T22:16:56.080Z,9.50
2022-10-30T22:19:22.715Z,9.38
2022-10-30T22:21:49.337Z,8.52
2022-10-30T22:24:17.172Z,9.25
2022-10-30T22:26:43.956Z,8.73
2022-10-30T22:29:11.587Z,8.27
2022-10-30T22:31:38.206Z,8.93
2022-10-30T22:34:04.895Z,9.73
2022-10-30T22:36:33.137Z,9.95
2022-10-30T22:39:02.016Z,9.05
2022-10-30T22:41:32.874Z,8.50
2022-10-30T22:44:05.006Z,8.85
2022-10-30T22:46:31.640Z,9.07
2022-10-30T22:48:58.534Z,9.27
2022-10-30T22:51:25.638Z,10.60
2022-10-30T22:54:00.838Z,9.68
2022-10-30T22:56:31.013Z,9.85
2022-10-30T22:59:00.290Z,9.70
2022-10-30T23:01:32.637Z,10.20
2022-10-30T23:04:01.070Z,8.93
2022-10-30T23:06:29.869Z,9.20
2022-10-30T23:08:58.727Z,9.15
2022-10-30T23:11:26.252Z,7.95
2022-10-30T23:13:52.955Z,8.52
2022-10-30T23:16:21.954Z,9.27
2022-10-30T23:18:49.351Z,8.90
2022-10-30T23:21:18.872Z,8.82
2022-10-30T23:23:45.992Z,7.80
2022-10-30T23:26:21.713Z,9.75
2022-10-30T23:28:50.052Z,9.05
2022-10-30T23:31:38.680Z,7.82
2022-10-30T23:34:08.857Z,8.38
2022-10-30T23:36:36.013Z,8.35
2022-10-30T23:39:05.178Z,9.05
2022-10-30T23:41:34.168Z,8.38
2022-10-30T23:44:05.064Z,8.43
2022-10-30T23:46:32.892Z,7.53
2022-10-30T23:48:59.628Z,7.60
2022-10-30T23:51:26.325Z,8.07
2022-10-30T23:53:53.262Z,7.28
2022-10-30T23:56:20.317Z,7.85
2022-10-30T23:58:49.513Z,7.30
